Terminal Aerodrome Forecast
Issued by NWS

Home | Current Version | Previous Version | Graphics & Text | Print | Product List | Glossary On
Versions: 1 2 3 4 5 6 7 8 9 10 11 12 13 14 15 16
000
FTUS43 KFGF 031900 AAA
TAFBJI
TAF AMD
KBJI 031946Z 0320/0418 30018G27KT 2SM BLSN BKN025
     FM032100 30019G27KT 5SM BLSN SCT015 BKN030
     FM040000 29015KT P6SM SCT025 BKN040
     FM040400 27013KT P6SM SCT050=

USA.gov is the U.S. government's official web portal to all federal, state and local government web resources and services.